sensor_id;sensor_type;location;lat;lon;timestamp;P1;durP1;ratioP1;P2;durP2;ratioP2
78120;SDS011;67585;44.802;10.332;2024-03-22T00:01:41;67.10;;;23.67;;
78120;SDS011;67585;44.802;10.332;2024-03-22T00:04:06;65.85;;;25.42;;
78120;SDS011;67585;44.802;10.332;2024-03-22T00:06:32;66.55;;;24.15;;
78120;SDS011;67585;44.802;10.332;2024-03-22T00:08:57;69.82;;;26.02;;
78120;SDS011;67585;44.802;10.332;2024-03-22T00:11:22;63.30;;;25.83;;
78120;SDS011;67585;44.802;10.332;2024-03-22T00:13:48;63.90;;;25.77;;
78120;SDS011;67585;44.802;10.332;2024-03-22T00:16:13;68.95;;;26.55;;
78120;SDS011;67585;44.802;10.332;2024-03-22T00:18:38;65.63;;;24.98;;
78120;SDS011;67585;44.802;10.332;2024-03-22T00:21:04;64.85;;;25.05;;
78120;SDS011;67585;44.802;10.332;2024-03-22T00:23:29;67.85;;;24.85;;
78120;SDS011;67585;44.802;10.332;2024-03-22T00:25:55;62.30;;;24.48;;
78120;SDS011;67585;44.802;10.332;2024-03-22T00:28:21;68.35;;;25.65;;
78120;SDS011;67585;44.802;10.332;2024-03-22T00:30:46;67.43;;;23.17;;
78120;SDS011;67585;44.802;10.332;2024-03-22T00:33:12;71.05;;;25.85;;
78120;SDS011;67585;44.802;10.332;2024-03-22T00:35:37;66.88;;;26.02;;
78120;SDS011;67585;44.802;10.332;2024-03-22T00:38:02;71.13;;;25.92;;
78120;SDS011;67585;44.802;10.332;2024-03-22T00:40:28;64.72;;;26.90;;
78120;SDS011;67585;44.802;10.332;2024-03-22T00:42:53;63.85;;;26.17;;
78120;SDS011;67585;44.802;10.332;2024-03-22T00:45:19;67.45;;;25.13;;
78120;SDS011;67585;44.802;10.332;2024-03-22T00:47:44;64.20;;;25.67;;
78120;SDS011;67585;44.802;10.332;2024-03-22T00:50:09;61.85;;;24.35;;
78120;SDS011;67585;44.802;10.332;2024-03-22T00:52:35;63.33;;;25.65;;
78120;SDS011;67585;44.802;10.332;2024-03-22T00:55:00;66.97;;;27.55;;
78120;SDS011;67585;44.802;10.332;2024-03-22T00:57:25;65.47;;;25.23;;
78120;SDS011;67585;44.802;10.332;2024-03-22T00:59:51;63.45;;;24.42;;
78120;SDS011;67585;44.802;10.332;2024-03-22T01:02:16;61.35;;;25.30;;
78120;SDS011;67585;44.802;10.332;2024-03-22T01:04:41;62.30;;;25.83;;
78120;SDS011;67585;44.802;10.332;2024-03-22T01:07:08;77.03;;;26.70;;
78120;SDS011;67585;44.802;10.332;2024-03-22T01:09:33;72.53;;;26.05;;
78120;SDS011;67585;44.802;10.332;2024-03-22T01:11:59;73.75;;;26.00;;
78120;SDS011;67585;44.802;10.332;2024-03-22T01:14:24;66.30;;;27.13;;
78120;SDS011;67585;44.802;10.332;2024-03-22T01:16:49;73.10;;;27.20;;
78120;SDS011;67585;44.802;10.332;2024-03-22T01:19:15;71.93;;;25.15;;
78120;SDS011;67585;44.802;10.332;2024-03-22T01:21:40;74.40;;;27.27;;
78120;SDS011;67585;44.802;10.332;2024-03-22T01:24:05;75.30;;;27.20;;
78120;SDS011;67585;44.802;10.332;2024-03-22T01:26:31;63.65;;;25.55;;
78120;SDS011;67585;44.802;10.332;2024-03-22T01:28:56;68.72;;;26.55;;
78120;SDS011;67585;44.802;10.332;2024-03-22T01:31:21;64.25;;;24.33;;
78120;SDS011;67585;44.802;10.332;2024-03-22T01:33:47;65.05;;;25.27;;
78120;SDS011;67585;44.802;10.332;2024-03-22T01:36:12;61.42;;;22.85;;
78120;SDS011;67585;44.802;10.332;2024-03-22T01:38:37;71.10;;;26.48;;
78120;SDS011;67585;44.802;10.332;2024-03-22T01:41:03;63.13;;;26.25;;
78120;SDS011;67585;44.802;10.332;2024-03-22T01:43:28;72.15;;;26.23;;
78120;SDS011;67585;44.802;10.332;2024-03-22T01:45:54;66.40;;;25.15;;
78120;SDS011;67585;44.802;10.332;2024-03-22T01:48:19;71.68;;;25.60;;
78120;SDS011;67585;44.802;10.332;2024-03-22T01:50:45;67.95;;;23.45;;
78120;SDS011;67585;44.802;10.332;2024-03-22T01:53:10;68.63;;;25.92;;
78120;SDS011;67585;44.802;10.332;2024-03-22T01:55:39;62.63;;;24.63;;
78120;SDS011;67585;44.802;10.332;2024-03-22T01:58:05;62.05;;;25.60;;
78120;SDS011;67585;44.802;10.332;2024-03-22T02:00:31;67.13;;;27.58;;
78120;SDS011;67585;44.802;10.332;2024-03-22T02:02:56;65.72;;;24.50;;
78120;SDS011;67585;44.802;10.332;2024-03-22T02:05:22;66.90;;;25.92;;
78120;SDS011;67585;44.802;10.332;2024-03-22T02:10:14;64.27;;;23.90;;
78120;SDS011;67585;44.802;10.332;2024-03-22T02:12:41;63.33;;;23.63;;
78120;SDS011;67585;44.802;10.332;2024-03-22T02:15:07;62.30;;;25.75;;
78120;SDS011;67585;44.802;10.332;2024-03-22T02:17:33;68.13;;;25.02;;
78120;SDS011;67585;44.802;10.332;2024-03-22T02:19:59;63.95;;;24.00;;
78120;SDS011;67585;44.802;10.332;2024-03-22T02:22:26;68.47;;;24.15;;
78120;SDS011;67585;44.802;10.332;2024-03-22T02:24:51;71.72;;;25.23;;
78120;SDS011;67585;44.802;10.332;2024-03-22T02:27:17;66.38;;;23.85;;
78120;SDS011;67585;44.802;10.332;2024-03-22T02:29:42;66.07;;;24.85;;
78120;SDS011;67585;44.802;10.332;2024-03-22T02:32:08;59.78;;;25.23;;
78120;SDS011;67585;44.802;10.332;2024-03-22T02:34:34;64.35;;;26.48;;
78120;SDS011;67585;44.802;10.332;2024-03-22T02:36:59;61.10;;;24.50;;
78120;SDS011;67585;44.802;10.332;2024-03-22T02:39:25;62.63;;;25.17;;
78120;SDS011;67585;44.802;10.332;2024-03-22T02:41:50;67.97;;;24.23;;
78120;SDS011;67585;44.802;10.332;2024-03-22T02:44:16;60.92;;;25.38;;
78120;SDS011;67585;44.802;10.332;2024-03-22T02:46:41;60.85;;;22.50;;
78120;SDS011;67585;44.802;10.332;2024-03-22T02:49:06;62.42;;;23.83;;
78120;SDS011;67585;44.802;10.332;2024-03-22T02:51:32;54.95;;;21.50;;
78120;SDS011;67585;44.802;10.332;2024-03-22T02:53:57;61.13;;;23.10;;
78120;SDS011;67585;44.802;10.332;2024-03-22T02:56:23;59.75;;;22.33;;
78120;SDS011;67585;44.802;10.332;2024-03-22T02:58:51;56.00;;;20.83;;
78120;SDS011;67585;44.802;10.332;2024-03-22T03:01:16;57.05;;;21.35;;
78120;SDS011;67585;44.802;10.332;2024-03-22T03:03:42;43.40;;;17.20;;
78120;SDS011;67585;44.802;10.332;2024-03-22T03:06:07;44.30;;;17.88;;
78120;SDS011;67585;44.802;10.332;2024-03-22T03:08:33;39.42;;;15.25;;
78120;SDS011;67585;44.802;10.332;2024-03-22T03:10:59;37.75;;;14.43;;
78120;SDS011;67585;44.802;10.332;2024-03-22T03:13:24;40.42;;;15.20;;
78120;SDS011;67585;44.802;10.332;2024-03-22T03:15:51;32.67;;;13.02;;
78120;SDS011;67585;44.802;10.332;2024-03-22T03:18:16;33.58;;;12.82;;
78120;SDS011;67585;44.802;10.332;2024-03-22T03:20:41;36.85;;;13.80;;
78120;SDS011;67585;44.802;10.332;2024-03-22T03:23:07;32.70;;;12.50;;
78120;SDS011;67585;44.802;10.332;2024-03-22T03:25:32;30.60;;;11.40;;
78120;SDS011;67585;44.802;10.332;2024-03-22T03:27:57;33.28;;;11.88;;
78120;SDS011;67585;44.802;10.332;2024-03-22T03:30:23;33.00;;;11.98;;
78120;SDS011;67585;44.802;10.332;2024-03-22T03:32:48;35.58;;;10.98;;
78120;SDS011;67585;44.802;10.332;2024-03-22T03:35:14;32.63;;;10.95;;
78120;SDS011;67585;44.802;10.332;2024-03-22T03:37:39;27.52;;;11.07;;
78120;SDS011;67585;44.802;10.332;2024-03-22T03:40:05;25.67;;;10.38;;
78120;SDS011;67585;44.802;10.332;2024-03-22T03:42:31;33.33;;;10.75;;
78120;SDS011;67585;44.802;10.332;2024-03-22T03:44:56;32.58;;;10.30;;
78120;SDS011;67585;44.802;10.332;2024-03-22T03:47:21;29.30;;;9.35;;
78120;SDS011;67585;44.802;10.332;2024-03-22T03:49:47;26.45;;;9.15;;
78120;SDS011;67585;44.802;10.332;2024-03-22T03:52:13;25.88;;;8.20;;
78120;SDS011;67585;44.802;10.332;2024-03-22T03:54:38;24.65;;;8.98;;
78120;SDS011;67585;44.802;10.332;2024-03-22T03:57:04;23.05;;;8.88;;
78120;SDS011;67585;44.802;10.332;2024-03-22T03:59:29;25.83;;;8.98;;
78120;SDS011;67585;44.802;10.332;2024-03-22T04:01:55;25.73;;;9.43;;
78120;SDS011;67585;44.802;10.332;2024-03-22T04:04:20;32.03;;;11.55;;
78120;SDS011;67585;44.802;10.332;2024-03-22T04:06:45;30.65;;;8.70;;
78120;SDS011;67585;44.802;10.332;2024-03-22T04:09:11;32.75;;;10.25;;
78120;SDS011;67585;44.802;10.332;2024-03-22T04:11:36;26.17;;;9.55;;
78120;SDS011;67585;44.802;10.332;2024-03-22T04:14:02;27.95;;;9.45;;
78120;SDS011;67585;44.802;10.332;2024-03-22T04:16:28;32.63;;;9.82;;
78120;SDS011;67585;44.802;10.332;2024-03-22T04:18:53;24.38;;;9.23;;
78120;SDS011;67585;44.802;10.332;2024-03-22T04:21:19;26.65;;;8.38;;
78120;SDS011;67585;44.802;10.332;2024-03-22T04:23:44;33.97;;;12.00;;
78120;SDS011;67585;44.802;10.332;2024-03-22T04:26:09;29.25;;;10.70;;
78120;SDS011;67585;44.802;10.332;2024-03-22T04:28:35;28.10;;;10.35;;
78120;SDS011;67585;44.802;10.332;2024-03-22T04:31:01;28.83;;;9.20;;
78120;SDS011;67585;44.802;10.332;2024-03-22T04:33:30;27.25;;;9.10;;
78120;SDS011;67585;44.802;10.332;2024-03-22T04:35:57;21.02;;;8.25;;
78120;SDS011;67585;44.802;10.332;2024-03-22T04:38:23;25.60;;;8.52;;
78120;SDS011;67585;44.802;10.332;2024-03-22T04:40:50;27.50;;;9.80;;
78120;SDS011;67585;44.802;10.332;2024-03-22T04:43:15;25.30;;;9.45;;
78120;SDS011;67585;44.802;10.332;2024-03-22T04:45:42;23.48;;;8.20;;
78120;SDS011;67585;44.802;10.332;2024-03-22T04:48:08;27.40;;;8.45;;
78120;SDS011;67585;44.802;10.332;2024-03-22T04:50:33;23.65;;;8.90;;
78120;SDS011;67585;44.802;10.332;2024-03-22T04:52:59;26.40;;;8.68;;
78120;SDS011;67585;44.802;10.332;2024-03-22T04:55:24;26.33;;;7.88;;
78120;SDS011;67585;44.802;10.332;2024-03-22T04:57:51;28.65;;;7.72;;
78120;SDS011;67585;44.802;10.332;2024-03-22T05:00:17;28.55;;;10.20;;
78120;SDS011;67585;44.802;10.332;2024-03-22T05:02:42;23.95;;;8.68;;
78120;SDS011;67585;44.802;10.332;2024-03-22T05:05:08;25.23;;;8.63;;
78120;SDS011;67585;44.802;10.332;2024-03-22T05:07:33;30.45;;;10.07;;
78120;SDS011;67585;44.802;10.332;2024-03-22T05:09:59;30.30;;;10.07;;
78120;SDS011;67585;44.802;10.332;2024-03-22T05:12:24;33.55;;;10.38;;
78120;SDS011;67585;44.802;10.332;2024-03-22T05:14:49;27.65;;;10.10;;
78120;SDS011;67585;44.802;10.332;2024-03-22T05:17:15;25.42;;;9.60;;
78120;SDS011;67585;44.802;10.332;2024-03-22T05:19:40;29.35;;;9.75;;
78120;SDS011;67585;44.802;10.332;2024-03-22T05:22:06;28.02;;;10.05;;
78120;SDS011;67585;44.802;10.332;2024-03-22T05:24:31;29.42;;;9.52;;
78120;SDS011;67585;44.802;10.332;2024-03-22T05:26:57;29.92;;;9.35;;
78120;SDS011;67585;44.802;10.332;2024-03-22T05:29:23;31.92;;;10.38;;
78120;SDS011;67585;44.802;10.332;2024-03-22T05:31:49;25.15;;;9.63;;
78120;SDS011;67585;44.802;10.332;2024-03-22T05:34:16;25.45;;;10.40;;
78120;SDS011;67585;44.802;10.332;2024-03-22T05:36:42;27.52;;;9.48;;
78120;SDS011;67585;44.802;10.332;2024-03-22T05:39:08;29.40;;;9.82;;
78120;SDS011;67585;44.802;10.332;2024-03-22T05:41:35;25.83;;;9.23;;
78120;SDS011;67585;44.802;10.332;2024-03-22T05:44:00;30.42;;;9.88;;
78120;SDS011;67585;44.802;10.332;2024-03-22T05:46:26;24.67;;;9.68;;
78120;SDS011;67585;44.802;10.332;2024-03-22T05:48:51;30.60;;;9.10;;
78120;SDS011;67585;44.802;10.332;2024-03-22T05:51:17;29.75;;;11.23;;
78120;SDS011;67585;44.802;10.332;2024-03-22T05:53:42;30.77;;;10.52;;
78120;SDS011;67585;44.802;10.332;2024-03-22T05:56:08;34.95;;;11.38;;
78120;SDS011;67585;44.802;10.332;2024-03-22T05:58:34;33.55;;;10.80;;
78120;SDS011;67585;44.802;10.332;2024-03-22T06:00:59;30.60;;;10.57;;
78120;SDS011;67585;44.802;10.332;2024-03-22T06:03:25;25.50;;;9.02;;
78120;SDS011;67585;44.802;10.332;2024-03-22T06:05:50;29.92;;;10.73;;
78120;SDS011;67585;44.802;10.332;2024-03-22T06:08:20;24.95;;;9.23;;
78120;SDS011;67585;44.802;10.332;2024-03-22T06:10:46;25.20;;;9.02;;
78120;SDS011;67585;44.802;10.332;2024-03-22T06:13:11;25.20;;;8.23;;
78120;SDS011;67585;44.802;10.332;2024-03-22T06:15:36;24.98;;;8.13;;
78120;SDS011;67585;44.802;10.332;2024-03-22T06:18:02;21.95;;;7.47;;
78120;SDS011;67585;44.802;10.332;2024-03-22T06:20:27;20.73;;;7.40;;
78120;SDS011;67585;44.802;10.332;2024-03-22T06:22:53;19.30;;;6.38;;
78120;SDS011;67585;44.802;10.332;2024-03-22T06:25:18;19.92;;;6.18;;
78120;SDS011;67585;44.802;10.332;2024-03-22T06:27:44;16.00;;;5.25;;
78120;SDS011;67585;44.802;10.332;2024-03-22T06:30:09;19.60;;;7.00;;
78120;SDS011;67585;44.802;10.332;2024-03-22T06:32:35;16.98;;;5.15;;
78120;SDS011;67585;44.802;10.332;2024-03-22T06:35:01;15.77;;;5.28;;
78120;SDS011;67585;44.802;10.332;2024-03-22T06:39:56;17.30;;;5.05;;
78120;SDS011;67585;44.802;10.332;2024-03-22T06:44:49;11.27;;;3.63;;
78120;SDS011;67585;44.802;10.332;2024-03-22T06:47:14;16.15;;;5.05;;
78120;SDS011;67585;44.802;10.332;2024-03-22T06:49:40;14.05;;;4.55;;
78120;SDS011;67585;44.802;10.332;2024-03-22T06:52:05;11.68;;;3.78;;
78120;SDS011;67585;44.802;10.332;2024-03-22T06:54:31;12.70;;;4.22;;
78120;SDS011;67585;44.802;10.332;2024-03-22T06:56:56;12.38;;;4.53;;
78120;SDS011;67585;44.802;10.332;2024-03-22T06:59:21;13.85;;;4.07;;
78120;SDS011;67585;44.802;10.332;2024-03-22T07:01:47;13.50;;;4.82;;
78120;SDS011;67585;44.802;10.332;2024-03-22T07:04:12;17.65;;;5.15;;
78120;SDS011;67585;44.802;10.332;2024-03-22T07:06:38;16.17;;;5.45;;
78120;SDS011;67585;44.802;10.332;2024-03-22T07:09:04;16.10;;;5.55;;
78120;SDS011;67585;44.802;10.332;2024-03-22T07:11:32;14.70;;;5.93;;
78120;SDS011;67585;44.802;10.332;2024-03-22T07:13:58;15.43;;;5.22;;
78120;SDS011;67585;44.802;10.332;2024-03-22T07:16:23;13.25;;;4.40;;
78120;SDS011;67585;44.802;10.332;2024-03-22T07:18:48;14.93;;;5.43;;
78120;SDS011;67585;44.802;10.332;2024-03-22T07:21:14;21.05;;;6.50;;
78120;SDS011;67585;44.802;10.332;2024-03-22T07:23:39;15.70;;;6.05;;
78120;SDS011;67585;44.802;10.332;2024-03-22T07:26:05;23.13;;;7.72;;
78120;SDS011;67585;44.802;10.332;2024-03-22T07:28:32;22.38;;;6.35;;
78120;SDS011;67585;44.802;10.332;2024-03-22T07:30:58;18.88;;;6.55;;
78120;SDS011;67585;44.802;10.332;2024-03-22T07:33:23;23.00;;;6.93;;
78120;SDS011;67585;44.802;10.332;2024-03-22T07:35:49;14.70;;;6.38;;
78120;SDS011;67585;44.802;10.332;2024-03-22T07:38:14;19.75;;;6.40;;
78120;SDS011;67585;44.802;10.332;2024-03-22T07:40:40;17.65;;;6.53;;
78120;SDS011;67585;44.802;10.332;2024-03-22T07:43:05;15.27;;;6.32;;
78120;SDS011;67585;44.802;10.332;2024-03-22T07:45:34;23.65;;;7.55;;
78120;SDS011;67585;44.802;10.332;2024-03-22T07:48:00;18.70;;;6.72;;
78120;SDS011;67585;44.802;10.332;2024-03-22T07:50:26;18.08;;;6.82;;
78120;SDS011;67585;44.802;10.332;2024-03-22T07:52:52;18.25;;;6.43;;
78120;SDS011;67585;44.802;10.332;2024-03-22T07:55:18;17.77;;;6.53;;
78120;SDS011;67585;44.802;10.332;2024-03-22T07:57:43;18.58;;;7.03;;
78120;SDS011;67585;44.802;10.332;2024-03-22T08:00:09;14.82;;;6.35;;
78120;SDS011;67585;44.802;10.332;2024-03-22T08:02:35;20.63;;;6.95;;
78120;SDS011;67585;44.802;10.332;2024-03-22T08:05:00;17.88;;;6.15;;
78120;SDS011;67585;44.802;10.332;2024-03-22T08:07:27;15.35;;;6.40;;
78120;SDS011;67585;44.802;10.332;2024-03-22T08:09:52;15.02;;;6.20;;
78120;SDS011;67585;44.802;10.332;2024-03-22T08:12:18;14.20;;;5.13;;
78120;SDS011;67585;44.802;10.332;2024-03-22T08:14:44;16.88;;;6.25;;
78120;SDS011;67585;44.802;10.332;2024-03-22T08:17:10;14.63;;;5.20;;
78120;SDS011;67585;44.802;10.332;2024-03-22T08:19:36;16.95;;;5.75;;
78120;SDS011;67585;44.802;10.332;2024-03-22T08:22:02;16.63;;;6.00;;
78120;SDS011;67585;44.802;10.332;2024-03-22T08:24:28;13.65;;;5.78;;
78120;SDS011;67585;44.802;10.332;2024-03-22T08:26:53;16.73;;;6.90;;
78120;SDS011;67585;44.802;10.332;2024-03-22T08:29:19;17.95;;;7.70;;
78120;SDS011;67585;44.802;10.332;2024-03-22T08:31:44;17.80;;;7.25;;
78120;SDS011;67585;44.802;10.332;2024-03-22T08:34:09;20.75;;;8.75;;
78120;SDS011;67585;44.802;10.332;2024-03-22T08:36:35;19.05;;;7.65;;
78120;SDS011;67585;44.802;10.332;2024-03-22T08:39:01;19.60;;;8.68;;
78120;SDS011;67585;44.802;10.332;2024-03-22T08:41:27;30.17;;;9.43;;
78120;SDS011;67585;44.802;10.332;2024-03-22T08:43:53;16.85;;;7.85;;
78120;SDS011;67585;44.802;10.332;2024-03-22T08:46:18;17.92;;;8.43;;
78120;SDS011;67585;44.802;10.332;2024-03-22T08:48:46;20.83;;;8.10;;
78120;SDS011;67585;44.802;10.332;2024-03-22T08:51:11;20.15;;;7.90;;
78120;SDS011;67585;44.802;10.332;2024-03-22T08:53:37;20.70;;;8.80;;
78120;SDS011;67585;44.802;10.332;2024-03-22T08:56:03;21.55;;;9.80;;
78120;SDS011;67585;44.802;10.332;2024-03-22T08:58:28;20.88;;;10.15;;
78120;SDS011;67585;44.802;10.332;2024-03-22T09:00:54;20.63;;;9.82;;
78120;SDS011;67585;44.802;10.332;2024-03-22T09:03:20;19.10;;;8.88;;
78120;SDS011;67585;44.802;10.332;2024-03-22T09:05:46;21.75;;;9.70;;
78120;SDS011;67585;44.802;10.332;2024-03-22T09:08:11;19.67;;;8.70;;
78120;SDS011;67585;44.802;10.332;2024-03-22T09:10:37;25.77;;;10.68;;
78120;SDS011;67585;44.802;10.332;2024-03-22T09:13:02;20.50;;;9.80;;
78120;SDS011;67585;44.802;10.332;2024-03-22T09:15:28;27.33;;;10.25;;
78120;SDS011;67585;44.802;10.332;2024-03-22T09:17:54;24.10;;;11.73;;
78120;SDS011;67585;44.802;10.332;2024-03-22T09:20:19;24.42;;;10.48;;
78120;SDS011;67585;44.802;10.332;2024-03-22T09:22:45;24.50;;;12.07;;
78120;SDS011;67585;44.802;10.332;2024-03-22T09:25:10;24.48;;;11.48;;
78120;SDS011;67585;44.802;10.332;2024-03-22T09:27:36;25.73;;;11.70;;
78120;SDS011;67585;44.802;10.332;2024-03-22T09:30:05;32.70;;;13.18;;
78120;SDS011;67585;44.802;10.332;2024-03-22T09:32:30;29.60;;;13.32;;
78120;SDS011;67585;44.802;10.332;2024-03-22T09:34:56;27.67;;;11.73;;
78120;SDS011;67585;44.802;10.332;2024-03-22T09:37:22;30.42;;;13.90;;
78120;SDS011;67585;44.802;10.332;2024-03-22T09:39:47;31.63;;;14.25;;
78120;SDS011;67585;44.802;10.332;2024-03-22T09:42:16;31.67;;;13.63;;
78120;SDS011;67585;44.802;10.332;2024-03-22T09:44:49;30.35;;;14.63;;
78120;SDS011;67585;44.802;10.332;2024-03-22T09:47:15;35.03;;;15.52;;
78120;SDS011;67585;44.802;10.332;2024-03-22T09:49:42;42.58;;;15.45;;
78120;SDS011;67585;44.802;10.332;2024-03-22T09:52:14;37.03;;;15.55;;
78120;SDS011;67585;44.802;10.332;2024-03-22T09:54:42;33.30;;;15.23;;
78120;SDS011;67585;44.802;10.332;2024-03-22T09:57:09;35.45;;;15.80;;
78120;SDS011;67585;44.802;10.332;2024-03-22T09:59:38;38.92;;;15.57;;
78120;SDS011;67585;44.802;10.332;2024-03-22T10:02:04;39.35;;;17.35;;
78120;SDS011;67585;44.802;10.332;2024-03-22T10:04:35;38.25;;;16.95;;
78120;SDS011;67585;44.802;10.332;2024-03-22T10:07:02;34.45;;;16.73;;
78120;SDS011;67585;44.802;10.332;2024-03-22T10:09:28;37.30;;;15.75;;
78120;SDS011;67585;44.802;10.332;2024-03-22T10:11:55;34.65;;;15.45;;
78120;SDS011;67585;44.802;10.332;2024-03-22T10:14:21;36.65;;;14.82;;
78120;SDS011;67585;44.802;10.332;2024-03-22T10:16:46;32.67;;;14.82;;
78120;SDS011;67585;44.802;10.332;2024-03-22T10:19:12;35.22;;;14.43;;
78120;SDS011;67585;44.802;10.332;2024-03-22T10:21:37;35.80;;;15.43;;
78120;SDS011;67585;44.802;10.332;2024-03-22T10:24:03;30.52;;;13.82;;
78120;SDS011;67585;44.802;10.332;2024-03-22T10:26:29;31.17;;;13.90;;
78120;SDS011;67585;44.802;10.332;2024-03-22T10:28:54;28.75;;;12.27;;
78120;SDS011;67585;44.802;10.332;2024-03-22T10:31:20;32.80;;;13.80;;
78120;SDS011;67585;44.802;10.332;2024-03-22T10:33:48;35.00;;;14.15;;
78120;SDS011;67585;44.802;10.332;2024-03-22T10:36:15;30.95;;;13.50;;
78120;SDS011;67585;44.802;10.332;2024-03-22T10:38:43;32.13;;;12.57;;
78120;SDS011;67585;44.802;10.332;2024-03-22T10:41:09;34.15;;;14.95;;
78120;SDS011;67585;44.802;10.332;2024-03-22T10:43:35;38.47;;;15.95;;
78120;SDS011;67585;44.802;10.332;2024-03-22T10:46:01;41.55;;;15.25;;
78120;SDS011;67585;44.802;10.332;2024-03-22T10:48:29;39.25;;;15.32;;
78120;SDS011;67585;44.802;10.332;2024-03-22T10:51:00;40.40;;;16.05;;
78120;SDS011;67585;44.802;10.332;2024-03-22T10:53:28;34.97;;;14.85;;
78120;SDS011;67585;44.802;10.332;2024-03-22T10:56:00;38.20;;;16.17;;
78120;SDS011;67585;44.802;10.332;2024-03-22T10:58:27;41.92;;;16.33;;
78120;SDS011;67585;44.802;10.332;2024-03-22T11:00:53;39.28;;;16.15;;
78120;SDS011;67585;44.802;10.332;2024-03-22T11:03:23;39.47;;;15.18;;
78120;SDS011;67585;44.802;10.332;2024-03-22T11:05:50;37.92;;;16.45;;
78120;SDS011;67585;44.802;10.332;2024-03-22T11:08:26;37.53;;;17.45;;
78120;SDS011;67585;44.802;10.332;2024-03-22T11:10:52;37.55;;;16.85;;
78120;SDS011;67585;44.802;10.332;2024-03-22T11:13:19;35.50;;;15.52;;
78120;SDS011;67585;44.802;10.332;2024-03-22T11:15:48;41.10;;;17.02;;
78120;SDS011;67585;44.802;10.332;2024-03-22T11:18:16;42.47;;;14.80;;
78120;SDS011;67585;44.802;10.332;2024-03-22T11:20:42;38.20;;;14.77;;
78120;SDS011;67585;44.802;10.332;2024-03-22T11:23:10;44.25;;;16.10;;
78120;SDS011;67585;44.802;10.332;2024-03-22T11:25:36;34.03;;;14.48;;
78120;SDS011;67585;44.802;10.332;2024-03-22T11:28:01;35.25;;;14.15;;
78120;SDS011;67585;44.802;10.332;2024-03-22T11:30:28;37.30;;;13.98;;
78120;SDS011;67585;44.802;10.332;2024-03-22T11:32:54;34.67;;;14.20;;
78120;SDS011;67585;44.802;10.332;2024-03-22T11:35:19;36.47;;;14.50;;
78120;SDS011;67585;44.802;10.332;2024-03-22T11:37:45;35.90;;;14.88;;
78120;SDS011;67585;44.802;10.332;2024-03-22T11:40:10;36.97;;;16.38;;
78120;SDS011;67585;44.802;10.332;2024-03-22T11:42:40;36.40;;;15.75;;
78120;SDS011;67585;44.802;10.332;2024-03-22T11:45:08;38.20;;;14.73;;
78120;SDS011;67585;44.802;10.332;2024-03-22T11:47:35;38.05;;;16.42;;
78120;SDS011;67585;44.802;10.332;2024-03-22T11:50:01;36.40;;;14.52;;
78120;SDS011;67585;44.802;10.332;2024-03-22T11:52:27;38.60;;;16.77;;
78120;SDS011;67585;44.802;10.332;2024-03-22T11:54:53;39.67;;;15.32;;
78120;SDS011;67585;44.802;10.332;2024-03-22T11:57:22;28.77;;;11.85;;
78120;SDS011;67585;44.802;10.332;2024-03-22T11:59:48;35.45;;;14.00;;
78120;SDS011;67585;44.802;10.332;2024-03-22T12:02:13;37.10;;;13.98;;
78120;SDS011;67585;44.802;10.332;2024-03-22T12:04:46;36.90;;;15.27;;
78120;SDS011;67585;44.802;10.332;2024-03-22T12:07:16;37.08;;;14.05;;
78120;SDS011;67585;44.802;10.332;2024-03-22T12:09:45;32.33;;;13.88;;
78120;SDS011;67585;44.802;10.332;2024-03-22T12:12:11;29.88;;;12.45;;
78120;SDS011;67585;44.802;10.332;2024-03-22T12:14:38;30.15;;;11.90;;
78120;SDS011;67585;44.802;10.332;2024-03-22T12:17:04;27.40;;;10.00;;
78120;SDS011;67585;44.802;10.332;2024-03-22T12:19:30;27.83;;;11.23;;
78120;SDS011;67585;44.802;10.332;2024-03-22T12:21:56;31.13;;;13.00;;
78120;SDS011;67585;44.802;10.332;2024-03-22T12:24:22;24.20;;;9.98;;
78120;SDS011;67585;44.802;10.332;2024-03-22T12:26:49;18.73;;;7.93;;
78120;SDS011;67585;44.802;10.332;2024-03-22T12:29:17;21.83;;;8.43;;
78120;SDS011;67585;44.802;10.332;2024-03-22T12:31:43;20.40;;;7.82;;
78120;SDS011;67585;44.802;10.332;2024-03-22T12:34:09;24.20;;;8.95;;
78120;SDS011;67585;44.802;10.332;2024-03-22T12:36:35;24.20;;;7.97;;
78120;SDS011;67585;44.802;10.332;2024-03-22T12:39:00;22.42;;;8.75;;
78120;SDS011;67585;44.802;10.332;2024-03-22T12:41:27;22.55;;;8.73;;
78120;SDS011;67585;44.802;10.332;2024-03-22T12:43:54;31.13;;;10.32;;
78120;SDS011;67585;44.802;10.332;2024-03-22T12:46:19;21.55;;;7.93;;
78120;SDS011;67585;44.802;10.332;2024-03-22T12:48:44;19.23;;;6.65;;
78120;SDS011;67585;44.802;10.332;2024-03-22T12:51:10;19.45;;;7.38;;
78120;SDS011;67585;44.802;10.332;2024-03-22T12:53:36;19.30;;;6.85;;
78120;SDS011;67585;44.802;10.332;2024-03-22T12:56:02;22.77;;;8.45;;
78120;SDS011;67585;44.802;10.332;2024-03-22T12:58:29;21.92;;;8.73;;
78120;SDS011;67585;44.802;10.332;2024-03-22T13:00:55;20.30;;;7.47;;
78120;SDS011;67585;44.802;10.332;2024-03-22T13:03:20;18.27;;;6.97;;
78120;SDS011;67585;44.802;10.332;2024-03-22T13:05:45;22.80;;;7.65;;
78120;SDS011;67585;44.802;10.332;2024-03-22T13:08:11;18.50;;;7.90;;
78120;SDS011;67585;44.802;10.332;2024-03-22T13:10:36;18.52;;;6.75;;
78120;SDS011;67585;44.802;10.332;2024-03-22T13:13:01;20.38;;;7.18;;
78120;SDS011;67585;44.802;10.332;2024-03-22T13:15:27;22.25;;;7.60;;
78120;SDS011;67585;44.802;10.332;2024-03-22T13:17:53;20.38;;;7.63;;
78120;SDS011;67585;44.802;10.332;2024-03-22T13:20:21;24.40;;;8.35;;
78120;SDS011;67585;44.802;10.332;2024-03-22T13:22:46;20.92;;;7.00;;
78120;SDS011;67585;44.802;10.332;2024-03-22T13:25:11;18.60;;;6.00;;
78120;SDS011;67585;44.802;10.332;2024-03-22T13:27:37;19.00;;;6.03;;
78120;SDS011;67585;44.802;10.332;2024-03-22T13:30:06;21.15;;;6.85;;
78120;SDS011;67585;44.802;10.332;2024-03-22T13:32:35;20.02;;;6.90;;
78120;SDS011;67585;44.802;10.332;2024-03-22T13:35:01;23.33;;;7.65;;
78120;SDS011;67585;44.802;10.332;2024-03-22T13:37:27;18.13;;;6.55;;
78120;SDS011;67585;44.802;10.332;2024-03-22T13:39:52;22.05;;;7.60;;
78120;SDS011;67585;44.802;10.332;2024-03-22T13:42:18;15.68;;;5.60;;
78120;SDS011;67585;44.802;10.332;2024-03-22T13:44:44;16.83;;;6.72;;
78120;SDS011;67585;44.802;10.332;2024-03-22T13:47:10;22.83;;;7.43;;
78120;SDS011;67585;44.802;10.332;2024-03-22T13:49:36;17.25;;;7.00;;
78120;SDS011;67585;44.802;10.332;2024-03-22T13:52:01;18.52;;;7.03;;
78120;SDS011;67585;44.802;10.332;2024-03-22T13:54:27;18.58;;;6.55;;
78120;SDS011;67585;44.802;10.332;2024-03-22T13:56:52;18.83;;;5.90;;
78120;SDS011;67585;44.802;10.332;2024-03-22T13:59:18;18.13;;;6.15;;
78120;SDS011;67585;44.802;10.332;2024-03-22T14:01:44;19.73;;;5.65;;
78120;SDS011;67585;44.802;10.332;2024-03-22T14:04:10;19.98;;;6.97;;
78120;SDS011;67585;44.802;10.332;2024-03-22T14:06:37;16.27;;;5.93;;
78120;SDS011;67585;44.802;10.332;2024-03-22T14:09:06;14.90;;;5.40;;
78120;SDS011;67585;44.802;10.332;2024-03-22T14:11:35;15.57;;;5.28;;
78120;SDS011;67585;44.802;10.332;2024-03-22T14:14:01;13.20;;;4.82;;